Latest Weather Observations for West Roebuck

IDW60801

Issued at 11:53 pm WST Wednesday 30 September 2020 (issued every 10 minutes, with the page automatically refreshed every 10 minutes)

About weather observations | Map of weather stations | Latest weather observations for WA | Other Formats
Station Details ID: 003096 Name: WEST ROEBUCK Lat: -17.90 Lon: 122.31 Height: 32.0 m
Data from the previous 72 hours. | See also: Recent months at West Roebuck
Date/Time
WST
Temp
°C
App
Temp
°C
Dew
Point
°C
Rel
Hum
%
Delta-T
°C
Wind Press
QNH
hPa
Press
MSL
hPa
Rain since
9am
mm
Dir  Spd
km/h
Gust
km/h
Spd
kts
Gust
kts
30/11:30pm 22.3 - - - - NW 7 11 4 6 - - 0.0
30/11:00pm 23.4 - - - - NW 9 13 5 7 - - 0.0
30/10:30pm 23.6 - - - - NNW 7 11 4 6 - - 0.0
30/10:00pm 23.5 - - - - NW 9 13 5 7 - - 0.0
30/09:30pm 22.9 - - - - NW 9 13 5 7 - - 0.0
30/09:00pm 23.1 - - - - N 7 11 4 6 - - 0.0
30/08:30pm 22.8 - - - - NNE 4 6 2 3 - - 0.0
30/08:00pm 23.4 - - - - NNW 2 7 1 4 - - 0.0
30/07:30pm 24.3 - - - - N 6 9 3 5 - - 0.0
30/07:00pm 26.2 - - - - NW 9 13 5 7 - - 0.0
30/06:30pm 27.5 - - - - WNW 11 15 6 8 - - 0.0
30/06:00pm 28.6 - - - - WNW 9 13 5 7 - - 0.0
30/05:30pm 30.4 - - - - WSW 15 24 8 13 - - 0.0
30/05:00pm 31.8 - - - - WSW 15 22 8 12 - - 0.0
30/04:30pm 33.2 - - - - SW 15 22 8 12 - - 0.0
30/04:00pm 34.4 - - - - WSW 15 22 8 12 - - 0.0
30/03:30pm 35.0 - - - - SW 17 24 9 13 - - 0.0
30/03:00pm 36.6 - - - - SW 15 22 8 12 - - 0.0
30/02:30pm 36.2 - - - - SW 19 24 10 13 - - 0.0
30/02:00pm 36.8 - - - - SW 17 24 9 13 - - 0.0
30/01:30pm 36.7 - - - - SW 17 24 9 13 - - 0.0
30/01:00pm 37.5 - - - - SW 17 28 9 15 - - 0.0
30/12:30pm 37.3 - - - - SW 17 26 9 14 - - 0.0
30/12:00pm 38.0 - - - - SW 13 26 7 14 - - 0.0
30/11:30am 38.0 - - - - SSW 9 24 5 13 - - 0.0
30/11:00am 36.7 - - - - S 11 19 6 10 - - 0.0
30/10:30am 35.3 - - - - SSW 9 17 5 9 - - 0.0
30/10:00am 33.4 - - - - S 11 17 6 9 - - 0.0
30/09:30am 32.2 - - - - SSW 15 22 8 12 - - 0.0
30/09:00am 31.8 - - - - S 15 20 8 11 - - 0.0
30/08:30am 30.2 - - - - SSW 13 20 7 11 - - 0.0
30/08:00am 28.2 - - - - SSW 9 19 5 10 - - 0.0
30/07:30am 25.7 - - - - S 15 24 8 13 - - 0.0
30/07:00am 23.0 - - - - S 9 13 5 7 - - 0.0
30/06:30am 21.4 - - - - S 2 9 1 5 - - 0.0
30/06:00am 20.5 - - - - SE 7 9 4 5 - - 0.0
30/05:30am 19.1 - - - - SSE 7 9 4 5 - - 0.0
30/05:00am 20.0 - - - - ESE 2 7 1 4 - - 0.0
30/04:30am 20.6 - - - - SSE 7 11 4 6 - - 0.0
30/04:00am 20.4 - - - - S 6 9 3 5 - - 0.0
30/03:30am 18.5 - - - - CALM 0 4 0 2 - - 0.0
30/03:00am 19.2 - - - - N 6 6 3 3 - - 0.0
30/02:30am 18.8 - - - - N 2 6 1 3 - - 0.0
30/02:00am 19.3 - - - - N 6 7 3 4 - - 0.0
30/01:30am 19.2 - - - - CALM 0 0 0 0 - - 0.0
30/01:00am 20.2 - - - - CALM 0 6 0 3 - - 0.0
30/12:30am 20.7 - - - - CALM 0 0 0 0 - - 0.0
30/12:00am 22.0 - - - - W 6 7 3 4 - - 0.0
 
Date/Time
WST
Temp
°C
App
Temp
°C
Dew
Point
°C
Rel
Hum
%
Delta-T
°C
Wind Press
QNH
hPa
Press
MSL
hPa
Rain since
9am
mm
Dir  Spd
km/h
Gust
km/h
Spd
kts
Gust
kts
29/11:30pm 22.1 - - - - W 9 9 5 5 - - 0.0
29/11:00pm 22.6 - - - - W 7 9 4 5 - - 0.0
29/10:30pm 22.5 - - - - W 9 11 5 6 - - 0.0
29/10:00pm 22.6 - - - - W 9 11 5 6 - - 0.0
29/09:30pm 23.2 - - - - WSW 7 9 4 5 - - 0.0
29/09:00pm 23.2 - - - - WSW 9 11 5 6 - - 0.0
29/08:30pm 23.4 - - - - WSW 7 11 4 6 - - 0.0
29/08:00pm 23.6 - - - - W 9 13 5 7 - - 0.0
29/07:30pm 24.0 - - - - W 9 13 5 7 - - 0.0
29/07:00pm 24.7 - - - - W 9 11 5 6 - - 0.0
29/06:30pm 25.5 - - - - W 9 13 5 7 - - 0.0
29/06:00pm 26.5 - - - - W 11 17 6 9 - - 0.0
29/05:30pm 27.7 - - - - W 17 24 9 13 - - 0.0
29/05:00pm 29.3 - - - - W 13 20 7 11 - - 0.0
29/04:30pm 30.9 - - - - W 17 24 9 13 - - 0.0
29/04:00pm 32.0 - - - - W 15 22 8 12 - - 0.0
29/03:30pm 33.5 - - - - WSW 15 24 8 13 - - 0.0
29/03:00pm 33.5 - - - - WSW 15 22 8 12 - - 0.0
29/02:30pm 33.5 - - - - WSW 15 24 8 13 - - 0.0
29/02:00pm 33.3 - - - - WSW 17 24 9 13 - - 0.0
29/01:30pm 33.3 - - - - WSW 15 24 8 13 - - 0.0
29/01:00pm 32.8 - - - - WSW 15 22 8 12 - - 0.0
29/12:30pm 33.0 - - - - WNW 15 24 8 13 - - 0.0
29/12:00pm 32.6 - - - - WSW 15 24 8 13 - - 0.0
29/11:30am 33.4 - - - - WSW 13 24 7 13 - - 0.0
29/11:00am 33.7 - - - - W 13 22 7 12 - - 0.0
29/10:30am 33.6 - - - - SW 9 15 5 8 - - 0.0
29/10:00am 32.6 - - - - WSW 11 19 6 10 - - 0.0
29/09:30am 30.5 - - - - SSW 9 17 5 9 - - 0.0
29/09:00am 29.4 - - - - W 6 13 3 7 - - 0.0
29/08:30am 28.7 - - - - S 9 15 5 8 - - 0.0
29/08:00am 26.8 - - - - W 7 11 4 6 - - 0.0
29/07:30am 24.9 - - - - ESE 6 11 3 6 - - 0.0
29/07:00am 22.5 - - - - CALM 0 0 0 0 - - 0.0
29/06:30am 20.5 - - - - N 6 9 3 5 - - 0.0
29/06:00am 19.6 - - - - NNE 7 9 4 5 - - 0.0
29/05:30am 19.4 - - - - N 7 9 4 5 - - 0.0
29/05:00am 18.7 - - - - N 7 9 4 5 - - 0.0
29/04:30am 18.1 - - - - NNW 7 9 4 5 - - 0.0
29/04:00am 17.7 - - - - NNW 6 7 3 4 - - 0.0
29/03:30am 18.6 - - - - NW 6 7 3 4 - - 0.0
29/03:00am 19.1 - - - - NNW 6 7 3 4 - - 0.0
29/02:30am 18.6 - - - - NW 6 9 3 5 - - 0.0
29/02:00am 19.0 - - - - W 7 9 4 5 - - 0.0
29/01:30am 19.3 - - - - W 9 11 5 6 - - 0.0
29/01:00am 19.1 - - - - WNW 7 9 4 5 - - 0.0
29/12:30am 19.6 - - - - NW 7 9 4 5 - - 0.0
29/12:00am 20.7 - - - - W 9 11 5 6 - - 0.0
 
Date/Time
WST
Temp
°C
App
Temp
°C
Dew
Point
°C
Rel
Hum
%
Delta-T
°C
Wind Press
QNH
hPa
Press
MSL
hPa
Rain since
9am
mm
Dir  Spd
km/h
Gust
km/h
Spd
kts
Gust
kts
28/11:30pm 19.6 - - - - WNW 9 9 5 5 - - 0.0
28/11:00pm 20.0 - - - - WNW 7 9 4 5 - - 0.0
28/10:30pm 19.9 - - - - W 9 9 5 5 - - 0.0
28/10:00pm 19.7 - - - - NNW 6 9 3 5 - - 0.0
28/09:30pm 20.9 - - - - WNW 6 7 3 4 - - 0.0
28/09:00pm 21.4 - - - - NW 7 7 4 4 - - 0.0
28/08:30pm 22.1 - - - - W 9 11 5 6 - - 0.0
28/08:00pm 23.0 - - - - WNW 7 9 4 5 - - 0.0
28/07:30pm 23.8 - - - - W 6 9 3 5 - - 0.0
28/07:00pm 24.4 - - - - WNW 7 11 4 6 - - 0.0
28/06:30pm 25.0 - - - - W 9 15 5 8 - - 0.0
28/06:00pm 25.6 - - - - W 13 20 7 11 - - 0.0
28/05:30pm 26.6 - - - - W 13 19 7 10 - - 0.0
28/05:00pm 27.6 - - - - WNW 15 24 8 13 - - 0.0
28/04:30pm 28.7 - - - - W 19 26 10 14 - - 0.0
28/04:00pm 29.5 - - - - W 17 32 9 17 - - 0.0
28/03:30pm 30.6 - - - - W 19 28 10 15 - - 0.0
28/03:00pm 30.5 - - - - W 19 30 10 16 - - 0.0
28/02:30pm 31.6 - - - - W 19 30 10 16 - - 0.0
28/02:00pm 31.8 - - - - W 19 28 10 15 - - 0.0
28/01:30pm 32.9 - - - - WSW 19 32 10 17 - - 0.0
28/01:00pm 32.8 - - - - W 19 32 10 17 - - 0.0
28/12:30pm 32.9 - - - - W 19 28 10 15 - - 0.0
28/12:00pm 33.0 - - - - W 15 26 8 14 - - 0.0
28/11:30am 31.0 - - - - WSW 17 26 9 14 - - 0.0
28/11:00am 31.9 - - - - WSW 13 22 7 12 - - 0.0
28/10:30am 31.7 - - - - W 15 24 8 13 - - 0.0
28/10:00am 31.4 - - - - WSW 13 24 7 13 - - 0.0
28/09:30am 30.7 - - - - W 15 24 8 13 - - 0.0
28/09:00am 30.3 - - - - WSW 9 19 5 10 - - 0.0
28/08:30am 29.6 - - - - W 11 17 6 9 - - 0.0
28/08:00am 28.6 - - - - WSW 9 20 5 11 - - 0.0
28/07:30am 27.5 - - - - SW 9 17 5 9 - - 0.0
28/07:00am 26.1 - - - - WSW 9 13 5 7 - - 0.0
28/06:30am 24.0 - - - - WSW 9 13 5 7 - - 0.0
28/06:00am 22.9 - - - - SW 7 9 4 5 - - 0.0
28/05:30am 22.4 - - - - WSW 7 9 4 5 - - 0.0
28/05:00am 22.7 - - - - SW 7 9 4 5 - - 0.0
28/04:30am 22.5 - - - - WSW 7 11 4 6 - - 0.0
28/04:00am 22.4 - - - - WSW 9 13 5 7 - - 0.0
28/03:30am 21.9 - - - - W 9 13 5 7 - - 0.0
28/03:00am 21.5 - - - - WSW 9 13 5 7 - - 0.0
28/02:30am 20.6 - - - - W 11 13 6 7 - - 0.0
28/02:00am 20.3 - - - - NW 7 9 4 5 - - 0.0
28/01:30am 21.1 - - - - NW 9 11 5 6 - - 0.0
28/01:00am 20.4 - - - - WNW 9 11 5 6 - - 0.0
28/12:30am 20.4 - - - - WNW 9 11 5 6 - - 0.0
28/12:00am 20.1 - - - - NNW 9 11 5 6 - - 0.0

Other formats

Comma delimited format used in spreadsheet applications
http://www.bom.gov.au/fwo/IDW60801/IDW60801.95204.axf

JavaScript Object Notation format (JSON) in row-major order
http://www.bom.gov.au/fwo/IDW60801/IDW60801.95204.json

Data quality

Most of these data are generated automatically and are frequently updated. Quality checks on data are not normally performed. It is possible for incorrect values to appear. Refer to information at About Latest Weather Observations and please check the disclaimer before using these data.